sensor_id;sensor_type;location;lat;lon;timestamp;noise_LAeq;noise_LA_min;noise_LA_max;noise_LA01;noise_LA95
58303;Laerm;44109;52.398;7.024;2022-10-16T00:01:43;47.71;32.83;57.86;;
58303;Laerm;44109;52.398;7.024;2022-10-16T00:04:11;47.27;31.73;57.75;;
58303;Laerm;44109;52.398;7.024;2022-10-16T00:06:39;47.22;32.50;57.39;;
58303;Laerm;44109;52.398;7.024;2022-10-16T00:09:07;47.23;32.04;57.50;;
58303;Laerm;44109;52.398;7.024;2022-10-16T00:11:37;47.43;31.95;57.61;;
58303;Laerm;44109;52.398;7.024;2022-10-16T00:14:11;47.03;32.03;57.38;;
58303;Laerm;44109;52.398;7.024;2022-10-16T00:16:39;46.86;32.37;57.07;;
58303;Laerm;44109;52.398;7.024;2022-10-16T00:19:07;47.13;32.18;57.42;;
58303;Laerm;44109;52.398;7.024;2022-10-16T00:21:36;47.07;31.82;57.32;;
58303;Laerm;44109;52.398;7.024;2022-10-16T00:24:06;47.07;31.80;57.51;;
58303;Laerm;44109;52.398;7.024;2022-10-16T00:26:36;47.17;31.60;57.44;;
58303;Laerm;44109;52.398;7.024;2022-10-16T00:29:05;46.97;31.70;57.15;;
58303;Laerm;44109;52.398;7.024;2022-10-16T00:31:34;47.07;31.56;62.13;;
58303;Laerm;44109;52.398;7.024;2022-10-16T00:34:02;47.00;31.54;57.25;;
58303;Laerm;44109;52.398;7.024;2022-10-16T00:36:29;47.26;31.95;57.12;;
58303;Laerm;44109;52.398;7.024;2022-10-16T00:38:58;46.97;31.38;57.06;;
58303;Laerm;44109;52.398;7.024;2022-10-16T00:41:27;46.87;31.15;56.98;;
58303;Laerm;44109;52.398;7.024;2022-10-16T00:43:58;47.02;31.96;57.08;;
58303;Laerm;44109;52.398;7.024;2022-10-16T00:46:29;46.85;31.75;56.79;;
58303;Laerm;44109;52.398;7.024;2022-10-16T00:49:04;46.40;31.72;56.97;;
58303;Laerm;44109;52.398;7.024;2022-10-16T00:51:39;33.81;31.34;50.88;;
58303;Laerm;44109;52.398;7.024;2022-10-16T00:54:11;46.47;31.90;56.98;;
58303;Laerm;44109;52.398;7.024;2022-10-16T00:56:41;46.43;31.74;57.04;;
58303;Laerm;44109;52.398;7.024;2022-10-16T00:59:16;46.59;30.97;56.67;;
58303;Laerm;44109;52.398;7.024;2022-10-16T01:01:45;46.88;31.65;62.34;;
58303;Laerm;44109;52.398;7.024;2022-10-16T01:04:14;46.71;31.30;56.70;;
58303;Laerm;44109;52.398;7.024;2022-10-16T01:06:55;46.68;31.31;56.74;;
58303;Laerm;44109;52.398;7.024;2022-10-16T01:09:34;46.41;31.65;56.95;;
58303;Laerm;44109;52.398;7.024;2022-10-16T01:12:10;46.49;31.59;56.87;;
58303;Laerm;44109;52.398;7.024;2022-10-16T01:14:48;46.41;31.42;56.92;;
58303;Laerm;44109;52.398;7.024;2022-10-16T01:17:28;46.67;31.67;57.33;;
58303;Laerm;44109;52.398;7.024;2022-10-16T01:20:10;46.44;31.40;56.87;;
58303;Laerm;44109;52.398;7.024;2022-10-16T01:22:49;46.69;31.74;56.70;;
58303;Laerm;44109;52.398;7.024;2022-10-16T01:25:29;46.48;31.61;57.14;;
58303;Laerm;44109;52.398;7.024;2022-10-16T01:28:08;46.36;31.54;56.91;;
58303;Laerm;44109;52.398;7.024;2022-10-16T01:30:42;46.96;31.45;58.81;;
58303;Laerm;44109;52.398;7.024;2022-10-16T01:33:16;46.58;31.17;57.15;;
58303;Laerm;44109;52.398;7.024;2022-10-16T01:35:52;46.47;31.47;57.10;;
58303;Laerm;44109;52.398;7.024;2022-10-16T01:38:28;46.61;31.48;57.18;;
58303;Laerm;44109;52.398;7.024;2022-10-16T01:41:04;46.67;31.48;56.94;;
58303;Laerm;44109;52.398;7.024;2022-10-16T01:43:38;46.70;31.58;56.91;;
58303;Laerm;44109;52.398;7.024;2022-10-16T01:46:10;47.06;32.37;57.26;;
58303;Laerm;44109;52.398;7.024;2022-10-16T01:48:39;47.17;31.88;56.97;;
58303;Laerm;44109;52.398;7.024;2022-10-16T01:51:12;46.98;32.15;57.02;;
58303;Laerm;44109;52.398;7.024;2022-10-16T01:53:45;46.71;32.14;57.12;;
58303;Laerm;44109;52.398;7.024;2022-10-16T01:56:17;46.83;32.47;56.99;;
58303;Laerm;44109;52.398;7.024;2022-10-16T01:58:53;46.36;31.77;57.01;;
58303;Laerm;44109;52.398;7.024;2022-10-16T02:01:25;46.78;31.72;59.64;;
58303;Laerm;44109;52.398;7.024;2022-10-16T02:03:59;46.64;31.61;56.99;;
58303;Laerm;44109;52.398;7.024;2022-10-16T02:06:28;46.97;31.72;56.88;;
58303;Laerm;44109;52.398;7.024;2022-10-16T02:08:56;47.17;31.58;56.89;;
58303;Laerm;44109;52.398;7.024;2022-10-16T02:11:24;46.76;32.18;57.04;;
58303;Laerm;44109;52.398;7.024;2022-10-16T02:13:59;46.53;31.50;56.97;;
58303;Laerm;44109;52.398;7.024;2022-10-16T02:16:34;46.51;31.53;56.93;;
58303;Laerm;44109;52.398;7.024;2022-10-16T02:19:03;46.36;31.56;57.04;;
58303;Laerm;44109;52.398;7.024;2022-10-16T02:21:41;46.45;31.54;57.09;;
58303;Laerm;44109;52.398;7.024;2022-10-16T02:24:22;46.36;31.88;57.09;;
58303;Laerm;44109;52.398;7.024;2022-10-16T02:27:03;46.26;31.25;56.86;;
58303;Laerm;44109;52.398;7.024;2022-10-16T02:29:40;46.56;32.02;57.06;;
58303;Laerm;44109;52.398;7.024;2022-10-16T02:32:14;46.52;31.69;57.11;;
58303;Laerm;44109;52.398;7.024;2022-10-16T02:34:44;46.63;31.46;57.02;;
58303;Laerm;44109;52.398;7.024;2022-10-16T02:37:13;46.62;31.46;57.03;;
58303;Laerm;44109;52.398;7.024;2022-10-16T02:39:41;46.79;31.66;57.04;;
58303;Laerm;44109;52.398;7.024;2022-10-16T02:42:10;46.75;31.38;57.01;;
58303;Laerm;44109;52.398;7.024;2022-10-16T02:44:40;46.85;31.66;57.10;;
58303;Laerm;44109;52.398;7.024;2022-10-16T02:47:07;46.98;31.53;56.91;;
58303;Laerm;44109;52.398;7.024;2022-10-16T02:49:35;46.76;31.59;57.06;;
58303;Laerm;44109;52.398;7.024;2022-10-16T02:52:03;46.76;31.78;56.95;;
58303;Laerm;44109;52.398;7.024;2022-10-16T02:54:30;46.84;31.52;57.01;;
58303;Laerm;44109;52.398;7.024;2022-10-16T02:56:58;46.80;31.62;57.11;;
58303;Laerm;44109;52.398;7.024;2022-10-16T02:59:25;47.38;32.72;57.05;;
58303;Laerm;44109;52.398;7.024;2022-10-16T03:01:54;47.12;32.15;60.82;;
58303;Laerm;44109;52.398;7.024;2022-10-16T03:04:21;47.01;32.38;57.19;;
58303;Laerm;44109;52.398;7.024;2022-10-16T03:06:49;47.06;32.02;57.19;;
58303;Laerm;44109;52.398;7.024;2022-10-16T03:09:16;47.09;32.48;57.09;;
58303;Laerm;44109;52.398;7.024;2022-10-16T03:11:44;47.25;31.76;57.84;;
58303;Laerm;44109;52.398;7.024;2022-10-16T03:14:11;47.65;32.15;57.25;;
58303;Laerm;44109;52.398;7.024;2022-10-16T03:16:39;47.13;32.15;57.22;;
58303;Laerm;44109;52.398;7.024;2022-10-16T03:19:08;47.20;31.58;57.24;;
58303;Laerm;44109;52.398;7.024;2022-10-16T03:21:35;46.99;31.94;57.26;;
58303;Laerm;44109;52.398;7.024;2022-10-16T03:24:04;46.96;32.83;57.07;;
58303;Laerm;44109;52.398;7.024;2022-10-16T03:26:31;47.55;32.72;57.18;;
58303;Laerm;44109;52.398;7.024;2022-10-16T03:28:59;47.05;33.24;57.30;;
58303;Laerm;44109;52.398;7.024;2022-10-16T03:31:28;47.22;33.41;57.26;;
58303;Laerm;44109;52.398;7.024;2022-10-16T03:33:56;47.07;32.59;57.42;;
58303;Laerm;44109;52.398;7.024;2022-10-16T03:36:25;47.04;32.49;57.66;;
58303;Laerm;44109;52.398;7.024;2022-10-16T03:38:53;48.76;33.65;70.68;;
58303;Laerm;44109;52.398;7.024;2022-10-16T03:41:20;47.43;33.37;57.64;;
58303;Laerm;44109;52.398;7.024;2022-10-16T03:43:48;47.83;34.57;58.08;;
58303;Laerm;44109;52.398;7.024;2022-10-16T03:46:15;48.23;35.16;58.05;;
58303;Laerm;44109;52.398;7.024;2022-10-16T03:48:43;47.88;32.47;58.06;;
58303;Laerm;44109;52.398;7.024;2022-10-16T03:51:10;47.82;33.16;58.28;;
58303;Laerm;44109;52.398;7.024;2022-10-16T03:53:39;47.58;32.78;58.06;;
58303;Laerm;44109;52.398;7.024;2022-10-16T03:56:07;47.96;34.54;58.07;;
58303;Laerm;44109;52.398;7.024;2022-10-16T03:58:34;47.90;32.93;58.12;;
58303;Laerm;44109;52.398;7.024;2022-10-16T04:01:01;47.97;32.02;62.97;;
58303;Laerm;44109;52.398;7.024;2022-10-16T04:03:29;47.92;33.29;58.55;;
58303;Laerm;44109;52.398;7.024;2022-10-16T04:05:57;47.90;32.42;58.16;;
58303;Laerm;44109;52.398;7.024;2022-10-16T04:08:24;47.79;32.46;58.38;;
58303;Laerm;44109;52.398;7.024;2022-10-16T04:10:53;47.68;32.00;58.12;;
58303;Laerm;44109;52.398;7.024;2022-10-16T04:13:20;47.68;32.76;58.11;;
58303;Laerm;44109;52.398;7.024;2022-10-16T04:15:48;47.84;32.42;58.73;;
58303;Laerm;44109;52.398;7.024;2022-10-16T04:18:15;47.77;32.66;58.54;;
58303;Laerm;44109;52.398;7.024;2022-10-16T04:20:43;48.31;33.04;58.41;;
58303;Laerm;44109;52.398;7.024;2022-10-16T04:23:10;47.96;33.17;58.40;;
58303;Laerm;44109;52.398;7.024;2022-10-16T04:25:38;48.05;33.41;58.71;;
58303;Laerm;44109;52.398;7.024;2022-10-16T04:28:07;48.13;33.78;58.34;;
58303;Laerm;44109;52.398;7.024;2022-10-16T04:30:34;48.06;32.53;58.58;;
58303;Laerm;44109;52.398;7.024;2022-10-16T04:33:02;48.65;33.05;60.96;;
58303;Laerm;44109;52.398;7.024;2022-10-16T04:35:30;48.38;32.55;58.97;;
58303;Laerm;44109;52.398;7.024;2022-10-16T04:37:57;48.45;33.56;59.07;;
58303;Laerm;44109;52.398;7.024;2022-10-16T04:40:25;48.21;33.36;58.57;;
58303;Laerm;44109;52.398;7.024;2022-10-16T04:42:52;48.09;32.36;58.45;;
58303;Laerm;44109;52.398;7.024;2022-10-16T04:45:21;48.32;32.63;58.51;;
58303;Laerm;44109;52.398;7.024;2022-10-16T04:47:49;48.30;32.23;58.72;;
58303;Laerm;44109;52.398;7.024;2022-10-16T04:50:16;48.13;32.61;58.60;;
58303;Laerm;44109;52.398;7.024;2022-10-16T04:52:43;48.64;33.01;59.05;;
58303;Laerm;44109;52.398;7.024;2022-10-16T04:55:11;48.62;33.21;58.96;;
58303;Laerm;44109;52.398;7.024;2022-10-16T04:57:40;48.31;32.56;59.01;;
58303;Laerm;44109;52.398;7.024;2022-10-16T05:00:09;48.89;33.34;66.34;;
58303;Laerm;44109;52.398;7.024;2022-10-16T05:02:38;48.94;33.69;64.63;;
58303;Laerm;44109;52.398;7.024;2022-10-16T05:05:06;48.68;34.34;58.97;;
58303;Laerm;44109;52.398;7.024;2022-10-16T05:07:34;48.49;33.11;58.95;;
58303;Laerm;44109;52.398;7.024;2022-10-16T05:10:02;48.32;32.38;58.59;;
58303;Laerm;44109;52.398;7.024;2022-10-16T05:12:29;48.50;33.73;58.99;;
58303;Laerm;44109;52.398;7.024;2022-10-16T05:14:57;48.43;33.17;62.12;;
58303;Laerm;44109;52.398;7.024;2022-10-16T05:17:25;48.27;32.38;58.63;;
58303;Laerm;44109;52.398;7.024;2022-10-16T05:19:54;48.40;32.85;60.23;;
58303;Laerm;44109;52.398;7.024;2022-10-16T05:22:22;49.05;32.97;59.13;;
58303;Laerm;44109;52.398;7.024;2022-10-16T05:24:49;48.97;34.29;60.61;;
58303;Laerm;44109;52.398;7.024;2022-10-16T05:27:17;48.99;33.88;59.03;;
58303;Laerm;44109;52.398;7.024;2022-10-16T05:29:46;49.70;34.36;64.42;;
58303;Laerm;44109;52.398;7.024;2022-10-16T05:32:15;49.45;32.97;62.04;;
58303;Laerm;44109;52.398;7.024;2022-10-16T05:34:43;49.08;34.19;61.96;;
58303;Laerm;44109;52.398;7.024;2022-10-16T05:37:12;49.58;35.85;60.34;;
58303;Laerm;44109;52.398;7.024;2022-10-16T05:39:40;50.56;35.01;66.43;;
58303;Laerm;44109;52.398;7.024;2022-10-16T05:42:07;50.01;33.49;61.45;;
58303;Laerm;44109;52.398;7.024;2022-10-16T05:44:35;49.42;33.46;61.11;;
58303;Laerm;44109;52.398;7.024;2022-10-16T05:47:02;49.30;33.83;65.73;;
58303;Laerm;44109;52.398;7.024;2022-10-16T05:49:30;50.14;36.00;61.52;;
58303;Laerm;44109;52.398;7.024;2022-10-16T05:51:57;49.35;36.48;59.36;;
58303;Laerm;44109;52.398;7.024;2022-10-16T05:54:26;48.98;35.00;61.35;;
58303;Laerm;44109;52.398;7.024;2022-10-16T05:56:54;49.01;38.44;59.64;;
58303;Laerm;44109;52.398;7.024;2022-10-16T05:59:21;49.51;37.58;59.95;;
58303;Laerm;44109;52.398;7.024;2022-10-16T06:01:49;49.91;35.02;61.22;;
58303;Laerm;44109;52.398;7.024;2022-10-16T06:04:16;49.19;35.19;58.44;;
58303;Laerm;44109;52.398;7.024;2022-10-16T06:06:44;51.19;35.19;74.97;;
58303;Laerm;44109;52.398;7.024;2022-10-16T06:09:11;49.22;35.24;59.52;;
58303;Laerm;44109;52.398;7.024;2022-10-16T06:11:40;48.95;35.72;64.87;;
58303;Laerm;44109;52.398;7.024;2022-10-16T06:14:08;49.02;35.89;60.63;;
58303;Laerm;44109;52.398;7.024;2022-10-16T06:16:37;49.27;36.11;63.39;;
58303;Laerm;44109;52.398;7.024;2022-10-16T06:19:04;49.05;36.55;58.97;;
58303;Laerm;44109;52.398;7.024;2022-10-16T06:21:34;50.10;39.44;61.18;;
58303;Laerm;44109;52.398;7.024;2022-10-16T06:24:02;49.77;36.38;62.95;;
58303;Laerm;44109;52.398;7.024;2022-10-16T06:26:30;50.59;37.40;63.76;;
58303;Laerm;44109;52.398;7.024;2022-10-16T06:29:00;49.32;37.38;60.48;;
58303;Laerm;44109;52.398;7.024;2022-10-16T06:31:30;49.49;36.65;64.22;;
58303;Laerm;44109;52.398;7.024;2022-10-16T06:34:00;48.91;37.14;58.59;;
58303;Laerm;44109;52.398;7.024;2022-10-16T06:36:28;49.07;34.78;66.54;;
58303;Laerm;44109;52.398;7.024;2022-10-16T06:38:56;49.15;36.93;64.21;;
58303;Laerm;44109;52.398;7.024;2022-10-16T06:41:24;50.15;36.26;69.94;;
58303;Laerm;44109;52.398;7.024;2022-10-16T06:43:51;52.68;38.23;75.04;;
58303;Laerm;44109;52.398;7.024;2022-10-16T06:46:23;50.10;36.81;67.67;;
58303;Laerm;44109;52.398;7.024;2022-10-16T06:48:52;49.76;36.65;65.15;;
58303;Laerm;44109;52.398;7.024;2022-10-16T06:51:22;50.72;36.15;61.57;;
58303;Laerm;44109;52.398;7.024;2022-10-16T06:53:52;49.58;37.12;64.70;;
58303;Laerm;44109;52.398;7.024;2022-10-16T06:56:22;50.73;37.75;62.44;;
58303;Laerm;44109;52.398;7.024;2022-10-16T06:58:51;49.96;36.69;62.92;;
58303;Laerm;44109;52.398;7.024;2022-10-16T07:01:23;49.49;36.44;60.93;;
58303;Laerm;44109;52.398;7.024;2022-10-16T07:03:52;49.78;37.37;67.21;;
58303;Laerm;44109;52.398;7.024;2022-10-16T07:06:22;49.57;39.09;59.50;;
58303;Laerm;44109;52.398;7.024;2022-10-16T07:08:50;51.36;36.69;67.17;;
58303;Laerm;44109;52.398;7.024;2022-10-16T07:11:21;50.04;37.28;66.86;;
58303;Laerm;44109;52.398;7.024;2022-10-16T07:13:50;50.16;37.41;63.71;;
58303;Laerm;44109;52.398;7.024;2022-10-16T07:16:22;50.48;40.56;65.06;;
58303;Laerm;44109;52.398;7.024;2022-10-16T07:18:50;50.37;39.26;60.07;;
58303;Laerm;44109;52.398;7.024;2022-10-16T07:21:25;49.68;37.76;59.12;;
58303;Laerm;44109;52.398;7.024;2022-10-16T07:23:54;52.78;38.85;74.97;;
58303;Laerm;44109;52.398;7.024;2022-10-16T07:26:23;51.65;39.72;71.24;;
58303;Laerm;44109;52.398;7.024;2022-10-16T07:28:51;53.69;39.08;70.01;;
58303;Laerm;44109;52.398;7.024;2022-10-16T07:31:21;50.56;37.60;66.83;;
58303;Laerm;44109;52.398;7.024;2022-10-16T07:33:50;50.89;39.80;65.56;;
58303;Laerm;44109;52.398;7.024;2022-10-16T07:36:20;50.52;39.21;63.20;;
58303;Laerm;44109;52.398;7.024;2022-10-16T07:38:47;50.87;38.88;66.65;;
58303;Laerm;44109;52.398;7.024;2022-10-16T07:41:17;51.12;37.57;68.49;;
58303;Laerm;44109;52.398;7.024;2022-10-16T07:43:46;50.93;38.95;63.46;;
58303;Laerm;44109;52.398;7.024;2022-10-16T07:46:13;50.27;36.56;59.66;;
58303;Laerm;44109;52.398;7.024;2022-10-16T07:48:44;50.85;39.17;59.80;;
58303;Laerm;44109;52.398;7.024;2022-10-16T07:51:16;49.93;37.27;59.61;;
58303;Laerm;44109;52.398;7.024;2022-10-16T07:53:43;50.29;38.37;59.71;;
58303;Laerm;44109;52.398;7.024;2022-10-16T07:56:11;50.74;40.01;59.76;;
58303;Laerm;44109;52.398;7.024;2022-10-16T07:58:39;51.75;38.19;70.09;;
58303;Laerm;44109;52.398;7.024;2022-10-16T08:01:09;51.01;38.24;64.65;;
58303;Laerm;44109;52.398;7.024;2022-10-16T08:03:37;50.35;37.23;60.08;;
58303;Laerm;44109;52.398;7.024;2022-10-16T08:06:06;51.05;37.72;66.00;;
58303;Laerm;44109;52.398;7.024;2022-10-16T08:08:34;50.69;40.10;60.60;;
58303;Laerm;44109;52.398;7.024;2022-10-16T08:11:02;51.19;40.78;65.64;;
58303;Laerm;44109;52.398;7.024;2022-10-16T08:13:30;50.14;36.64;59.91;;
58303;Laerm;44109;52.398;7.024;2022-10-16T08:15:58;50.42;38.47;66.07;;
58303;Laerm;44109;52.398;7.024;2022-10-16T08:18:25;50.16;36.98;59.72;;
58303;Laerm;44109;52.398;7.024;2022-10-16T08:20:58;51.21;39.35;70.93;;
58303;Laerm;44109;52.398;7.024;2022-10-16T08:23:28;51.18;41.53;59.87;;
58303;Laerm;44109;52.398;7.024;2022-10-16T08:26:04;50.50;38.37;64.65;;
58303;Laerm;44109;52.398;7.024;2022-10-16T08:28:31;52.04;41.24;72.60;;
58303;Laerm;44109;52.398;7.024;2022-10-16T08:31:09;51.69;41.41;67.62;;
58303;Laerm;44109;52.398;7.024;2022-10-16T08:33:38;51.80;40.35;67.32;;
58303;Laerm;44109;52.398;7.024;2022-10-16T08:36:06;51.18;40.95;62.83;;
58303;Laerm;44109;52.398;7.024;2022-10-16T08:38:35;51.18;41.46;64.57;;
58303;Laerm;44109;52.398;7.024;2022-10-16T08:41:22;51.37;41.64;63.66;;
58303;Laerm;44109;52.398;7.024;2022-10-16T08:44:21;51.21;40.84;64.86;;
58303;Laerm;44109;52.398;7.024;2022-10-16T08:47:01;52.00;42.22;61.16;;
58303;Laerm;44109;52.398;7.024;2022-10-16T08:49:31;51.09;42.49;63.84;;
58303;Laerm;44109;52.398;7.024;2022-10-16T08:51:59;51.80;41.62;69.88;;
58303;Laerm;44109;52.398;7.024;2022-10-16T08:54:36;51.49;40.72;72.60;;
58303;Laerm;44109;52.398;7.024;2022-10-16T08:57:13;51.78;42.90;59.98;;
58303;Laerm;44109;52.398;7.024;2022-10-16T08:59:42;50.72;41.38;59.59;;
58303;Laerm;44109;52.398;7.024;2022-10-16T09:02:26;53.56;41.76;72.52;;
58303;Laerm;44109;52.398;7.024;2022-10-16T09:05:27;51.67;40.31;70.24;;
58303;Laerm;44109;52.398;7.024;2022-10-16T09:08:05;51.03;42.02;65.62;;
58303;Laerm;44109;52.398;7.024;2022-10-16T09:10:48;51.46;41.84;60.12;;
58303;Laerm;44109;52.398;7.024;2022-10-16T09:13:29;50.83;41.44;61.85;;
58303;Laerm;44109;52.398;7.024;2022-10-16T09:16:13;50.35;40.83;59.51;;
58303;Laerm;44109;52.398;7.024;2022-10-16T09:18:53;51.70;40.51;68.73;;
58303;Laerm;44109;52.398;7.024;2022-10-16T09:21:28;51.32;39.56;59.48;;
58303;Laerm;44109;52.398;7.024;2022-10-16T09:24:00;50.34;40.34;59.48;;
58303;Laerm;44109;52.398;7.024;2022-10-16T09:26:35;50.62;40.31;59.75;;
58303;Laerm;44109;52.398;7.024;2022-10-16T09:29:03;53.22;40.27;70.09;;
58303;Laerm;44109;52.398;7.024;2022-10-16T09:31:31;54.62;40.00;75.65;;
58303;Laerm;44109;52.398;7.024;2022-10-16T09:34:02;51.74;42.82;61.66;;
58303;Laerm;44109;52.398;7.024;2022-10-16T09:36:39;50.83;40.89;59.60;;
58303;Laerm;44109;52.398;7.024;2022-10-16T09:39:10;50.96;41.63;63.18;;
58303;Laerm;44109;52.398;7.024;2022-10-16T09:41:44;50.96;40.92;59.99;;
58303;Laerm;44109;52.398;7.024;2022-10-16T09:44:22;51.04;41.81;64.16;;
58303;Laerm;44109;52.398;7.024;2022-10-16T09:47:02;51.19;41.58;60.01;;
58303;Laerm;44109;52.398;7.024;2022-10-16T09:49:29;51.34;41.94;70.26;;
58303;Laerm;44109;52.398;7.024;2022-10-16T09:52:12;50.84;40.38;64.27;;
58303;Laerm;44109;52.398;7.024;2022-10-16T09:54:50;55.02;43.15;84.22;;
58303;Laerm;44109;52.398;7.024;2022-10-16T09:57:20;50.89;41.85;59.71;;
58303;Laerm;44109;52.398;7.024;2022-10-16T09:59:51;51.35;42.13;62.98;;
58303;Laerm;44109;52.398;7.024;2022-10-16T10:02:28;50.69;40.13;61.01;;
58303;Laerm;44109;52.398;7.024;2022-10-16T10:04:57;50.52;38.33;59.45;;
58303;Laerm;44109;52.398;7.024;2022-10-16T10:07:28;50.77;40.95;59.64;;
58303;Laerm;44109;52.398;7.024;2022-10-16T10:10:01;52.27;40.25;62.28;;
58303;Laerm;44109;52.398;7.024;2022-10-16T10:12:32;51.23;40.76;60.09;;
58303;Laerm;44109;52.398;7.024;2022-10-16T10:15:09;51.17;41.31;60.57;;
58303;Laerm;44109;52.398;7.024;2022-10-16T10:17:48;50.55;40.35;59.44;;
58303;Laerm;44109;52.398;7.024;2022-10-16T10:20:25;50.65;38.42;62.14;;
58303;Laerm;44109;52.398;7.024;2022-10-16T10:22:54;51.14;40.23;73.21;;
58303;Laerm;44109;52.398;7.024;2022-10-16T10:25:44;50.68;40.65;64.28;;
58303;Laerm;44109;52.398;7.024;2022-10-16T10:28:47;51.49;42.40;60.95;;
58303;Laerm;44109;52.398;7.024;2022-10-16T10:31:25;51.46;43.24;60.28;;
58303;Laerm;44109;52.398;7.024;2022-10-16T10:36:57;51.68;43.00;59.94;;
58303;Laerm;44109;52.398;7.024;2022-10-16T10:39:38;50.81;38.63;66.91;;
58303;Laerm;44109;52.398;7.024;2022-10-16T10:42:20;51.99;43.21;65.56;;
58303;Laerm;44109;52.398;7.024;2022-10-16T10:45:16;50.44;41.26;59.64;;
58303;Laerm;44109;52.398;7.024;2022-10-16T10:47:59;50.90;41.13;67.24;;
58303;Laerm;44109;52.398;7.024;2022-10-16T10:50:39;51.69;41.72;65.22;;
58303;Laerm;44109;52.398;7.024;2022-10-16T10:53:35;51.79;40.75;65.46;;
58303;Laerm;44109;52.398;7.024;2022-10-16T10:56:22;51.31;39.57;60.24;;
58303;Laerm;44109;52.398;7.024;2022-10-16T11:02:04;51.40;41.27;60.10;;
58303;Laerm;44109;52.398;7.024;2022-10-16T11:05:13;52.57;41.98;66.03;;
58303;Laerm;44109;52.398;7.024;2022-10-16T11:07:51;51.61;40.84;62.88;;
58303;Laerm;44109;52.398;7.024;2022-10-16T11:10:24;52.29;42.14;60.15;;
58303;Laerm;44109;52.398;7.024;2022-10-16T11:12:59;51.71;43.20;60.11;;
58303;Laerm;44109;52.398;7.024;2022-10-16T11:15:35;51.26;42.02;64.59;;
58303;Laerm;44109;52.398;7.024;2022-10-16T11:18:12;51.38;39.45;64.98;;
58303;Laerm;44109;52.398;7.024;2022-10-16T11:20:50;54.86;43.09;76.23;;
58303;Laerm;44109;52.398;7.024;2022-10-16T11:23:27;51.70;42.76;59.65;;
58303;Laerm;44109;52.398;7.024;2022-10-16T11:26:02;51.82;42.86;60.57;;
58303;Laerm;44109;52.398;7.024;2022-10-16T11:28:37;51.40;43.13;59.86;;
58303;Laerm;44109;52.398;7.024;2022-10-16T11:31:16;50.78;41.40;59.48;;
58303;Laerm;44109;52.398;7.024;2022-10-16T11:33:57;52.87;42.30;63.52;;
58303;Laerm;44109;52.398;7.024;2022-10-16T11:36:36;52.36;40.95;63.21;;
58303;Laerm;44109;52.398;7.024;2022-10-16T11:39:21;56.83;40.76;83.22;;
58303;Laerm;44109;52.398;7.024;2022-10-16T11:41:55;50.76;41.11;59.31;;
58303;Laerm;44109;52.398;7.024;2022-10-16T11:44:41;51.01;42.65;60.41;;
58303;Laerm;44109;52.398;7.024;2022-10-16T11:47:32;53.15;44.84;65.81;;
58303;Laerm;44109;52.398;7.024;2022-10-16T11:50:20;51.41;41.53;75.30;;
58303;Laerm;44109;52.398;7.024;2022-10-16T11:52:56;50.52;40.17;59.81;;
58303;Laerm;44109;52.398;7.024;2022-10-16T11:55:31;51.34;40.39;59.61;;
58303;Laerm;44109;52.398;7.024;2022-10-16T11:58:07;50.26;40.87;59.48;;
58303;Laerm;44109;52.398;7.024;2022-10-16T12:00:45;51.61;40.66;60.09;;
58303;Laerm;44109;52.398;7.024;2022-10-16T12:03:21;51.02;42.67;59.92;;
58303;Laerm;44109;52.398;7.024;2022-10-16T12:06:19;51.13;42.13;59.64;;
58303;Laerm;44109;52.398;7.024;2022-10-16T12:08:51;51.94;43.77;60.25;;
58303;Laerm;44109;52.398;7.024;2022-10-16T12:11:32;50.87;41.01;60.00;;
58303;Laerm;44109;52.398;7.024;2022-10-16T12:14:35;50.84;40.24;67.02;;
58303;Laerm;44109;52.398;7.024;2022-10-16T12:17:23;50.10;40.63;59.35;;
58303;Laerm;44109;52.398;7.024;2022-10-16T12:20:00;51.10;41.61;59.75;;
58303;Laerm;44109;52.398;7.024;2022-10-16T12:22:31;51.30;42.16;60.85;;
58303;Laerm;44109;52.398;7.024;2022-10-16T12:24:59;52.04;43.63;60.46;;
58303;Laerm;44109;52.398;7.024;2022-10-16T12:27:30;52.21;42.27;78.71;;
58303;Laerm;44109;52.398;7.024;2022-10-16T12:30:00;50.66;41.84;60.13;;
58303;Laerm;44109;52.398;7.024;2022-10-16T12:32:34;50.87;41.71;59.58;;
58303;Laerm;44109;52.398;7.024;2022-10-16T12:35:05;50.41;39.13;59.53;;
58303;Laerm;44109;52.398;7.024;2022-10-16T12:37:37;50.61;39.47;61.26;;
58303;Laerm;44109;52.398;7.024;2022-10-16T12:40:15;50.27;38.96;60.19;;
58303;Laerm;44109;52.398;7.024;2022-10-16T12:42:43;50.29;39.07;59.51;;
58303;Laerm;44109;52.398;7.024;2022-10-16T12:45:28;50.74;39.44;60.11;;
58303;Laerm;44109;52.398;7.024;2022-10-16T12:47:56;51.50;41.18;76.58;;
58303;Laerm;44109;52.398;7.024;2022-10-16T12:50:29;50.71;40.02;59.76;;
58303;Laerm;44109;52.398;7.024;2022-10-16T12:53:00;50.95;40.87;62.66;;
58303;Laerm;44109;52.398;7.024;2022-10-16T12:55:47;50.94;40.01;60.23;;
58303;Laerm;44109;52.398;7.024;2022-10-16T12:58:36;50.31;38.77;61.05;;
58303;Laerm;44109;52.398;7.024;2022-10-16T13:01:22;49.66;38.00;59.77;;
58303;Laerm;44109;52.398;7.024;2022-10-16T13:04:19;50.44;40.09;62.44;;
58303;Laerm;44109;52.398;7.024;2022-10-16T13:06:56;50.05;38.82;64.53;;
58303;Laerm;44109;52.398;7.024;2022-10-16T13:09:44;52.01;39.73;69.53;;
58303;Laerm;44109;52.398;7.024;2022-10-16T13:12:36;49.74;39.03;59.81;;
58303;Laerm;44109;52.398;7.024;2022-10-16T13:15:32;49.95;38.87;63.36;;
58303;Laerm;44109;52.398;7.024;2022-10-16T13:18:15;49.90;39.24;59.78;;
58303;Laerm;44109;52.398;7.024;2022-10-16T13:21:09;49.89;39.05;59.83;;
58303;Laerm;44109;52.398;7.024;2022-10-16T13:23:49;50.58;39.44;68.09;;
58303;Laerm;44109;52.398;7.024;2022-10-16T13:26:31;50.23;38.71;60.79;;
58303;Laerm;44109;52.398;7.024;2022-10-16T13:29:04;50.09;37.83;61.34;;
58303;Laerm;44109;52.398;7.024;2022-10-16T13:31:32;50.24;39.70;59.90;;
58303;Laerm;44109;52.398;7.024;2022-10-16T13:34:01;50.07;37.90;59.88;;
58303;Laerm;44109;52.398;7.024;2022-10-16T13:36:34;50.29;37.91;59.92;;
58303;Laerm;44109;52.398;7.024;2022-10-16T13:39:12;49.74;37.50;60.63;;
58303;Laerm;44109;52.398;7.024;2022-10-16T13:41:42;50.00;36.71;62.78;;
58303;Laerm;44109;52.398;7.024;2022-10-16T13:44:17;50.19;38.58;63.42;;
58303;Laerm;44109;52.398;7.024;2022-10-16T13:46:45;49.92;36.62;59.56;;
58303;Laerm;44109;52.398;7.024;2022-10-16T13:49:15;50.66;38.33;60.98;;
58303;Laerm;44109;52.398;7.024;2022-10-16T13:51:55;49.46;37.08;59.45;;
58303;Laerm;44109;52.398;7.024;2022-10-16T13:54:23;50.07;36.42;59.90;;
58303;Laerm;44109;52.398;7.024;2022-10-16T13:56:53;49.68;37.01;59.53;;
58303;Laerm;44109;52.398;7.024;2022-10-16T13:59:25;56.60;36.64;81.13;;
58303;Laerm;44109;52.398;7.024;2022-10-16T14:01:57;50.02;35.84;65.99;;
58303;Laerm;44109;52.398;7.024;2022-10-16T14:04:30;50.15;37.47;59.90;;
58303;Laerm;44109;52.398;7.024;2022-10-16T14:06:59;50.43;39.94;59.80;;
58303;Laerm;44109;52.398;7.024;2022-10-16T14:09:29;50.18;38.27;60.07;;
58303;Laerm;44109;52.398;7.024;2022-10-16T14:12:02;49.71;37.66;59.54;;
58303;Laerm;44109;52.398;7.024;2022-10-16T14:14:39;50.04;38.77;60.78;;
58303;Laerm;44109;52.398;7.024;2022-10-16T14:17:14;50.18;37.89;61.62;;
58303;Laerm;44109;52.398;7.024;2022-10-16T14:19:46;50.30;37.99;59.92;;
58303;Laerm;44109;52.398;7.024;2022-10-16T14:22:30;50.83;37.95;69.68;;